General Aviation Weather

Text Reports

Enter one or more of the following location identifiers separated by a space:

Zip Code, Four-Character ICAO or Three-Character IATA airport codes.

METAR - Aviation Routine Weather Report
KSFB - Sanford, Florida
Updated at 7:53 PM GMT on January 31, 2015 (2:53 PM EST):
METAR KSFB 311953Z 06012G19KT 10SM SCT046 21/08 A3027 RMK AO2 SLP249 T02110078
TAF - Terminal Area Forecast
KSFB - Sanford, Florida
Updated at 7:53 PM GMT on January 31, 2015 (2:53 PM EST):
No TAF is currently available for this location.
Decoded:
No decoded TAF is available.
PIREP - Pilot Weather Report
KSFB - Sanford, Florida
Updated at 7:53 PM GMT on January 31, 2015 (2:53 PM EST):
No PIREP is currently available for this location.
AIRMET - Airmens Meteorological Information
KSFB - Sanford, Florida
Updated at 7:53 PM GMT on January 31, 2015 (2:53 PM EST):
No AIRMET is currently available for this location.
SIGMET - Significant Meteorological Information
KSFB - Sanford, Florida
Updated at 7:53 PM GMT on January 31, 2015 (2:53 PM EST):
No SIGMET is currently available for this location.
NOTAM - Notice to Airmen
KSFB - Sanford, Florida
Updated at 7:53 PM GMT on January 31, 2015 (2:53 PM EST):
No NOTAM is currently available for this location.
Forecast Area
KSFB - Sanford, Florida
Updated at 7:53 PM GMT on January 31, 2015 (2:53 PM EST):
No NOTAM is currently available for this location.
Aviation Weather Maps